Time;durP1;ratioP1;P1;durP2;ratioP2;P2;SDS_P1;SDS_P2;PMS_P1;PMS_P2;Temp;Humidity;BMP_temperature;BMP_pressure;BME280_temperature;BME280_humidity;BME280_pressure;Samples;Min_cycle;Max_cycle;Signal;HPM_P1;HPM_P2
2024/01/29 00:06:09;;;;;;;6.18;3.50;;;;;;;;;;20847988;28;20042;-72
2024/01/29 00:16:29;;;;;;;4.07;3.67;;;;;;;;;;20848100;28;20041;-73
2024/01/29 00:26:50;;;;;;;5.43;3.55;;;;;;;;;;20848127;28;20449;-72
2024/01/29 00:37:09;;;;;;;4.00;3.28;;;;;;;;;;20847527;28;20041;-72
2024/01/29 00:47:28;;;;;;;5.05;3.22;;;;;;;;;;20829645;28;20418;-72
2024/01/29 00:57:48;;;;;;;5.63;3.70;;;;;;;;;;20846463;28;20041;-72
2024/01/29 01:08:07;;;;;;;4.15;3.55;;;;;;;;;;20845159;28;20429;-72
2024/01/29 01:18:26;;;;;;;4.88;3.38;;;;;;;;;;20845443;28;20045;-72
2024/01/29 01:28:46;;;;;;;3.67;3.25;;;;;;;;;;20843932;28;20045;-72
2024/01/29 01:39:05;;;;;;;3.78;3.17;;;;;;;;;;20841474;28;20042;-72
2024/01/29 01:49:25;;;;;;;4.05;3.20;;;;;;;;;;20825116;28;20053;-73
2024/01/29 01:59:45;;;;;;;3.92;3.17;;;;;;;;;;20842948;28;20042;-73
2024/01/29 02:10:04;;;;;;;3.78;3.17;;;;;;;;;;20843656;28;20403;-69
2024/01/29 02:20:24;;;;;;;4.20;3.20;;;;;;;;;;20855588;28;20509;-70
2024/01/29 02:30:44;;;;;;;3.72;3.22;;;;;;;;;;20855247;28;20045;-69
2024/01/29 02:41:03;;;;;;;3.13;2.83;;;;;;;;;;20835989;28;20053;-70
2024/01/29 02:51:22;;;;;;;3.58;2.80;;;;;;;;;;20829930;28;20099;-69
2024/01/29 03:01:42;;;;;;;3.53;3.17;;;;;;;;;;20852963;28;20045;-69
2024/01/29 03:12:01;;;;;;;3.00;2.60;;;;;;;;;;20853279;28;20050;-69
2024/01/29 03:22:20;;;;;;;3.47;2.90;;;;;;;;;;20852677;28;20045;-72
2024/01/29 03:32:40;;;;;;;3.25;2.70;;;;;;;;;;20846500;28;20076;-72
2024/01/29 03:42:59;;;;;;;3.30;2.63;;;;;;;;;;20849633;28;20154;-69
2024/01/29 03:53:19;;;;;;;4.35;2.65;;;;;;;;;;20827073;28;20068;-69
2024/01/29 04:03:39;;;;;;;2.85;2.63;;;;;;;;;;20849314;28;20045;-70
2024/01/29 04:13:59;;;;;;;3.00;2.70;;;;;;;;;;20847057;28;20437;-69
2024/01/29 04:24:18;;;;;;;3.13;2.83;;;;;;;;;;20847283;28;20045;-69
2024/01/29 04:34:38;;;;;;;3.42;2.70;;;;;;;;;;20825492;28;20049;-69
2024/01/29 04:44:57;;;;;;;3.65;2.92;;;;;;;;;;20834535;28;20045;-69
2024/01/29 04:55:17;;;;;;;3.45;2.55;;;;;;;;;;20842893;28;20042;-69
2024/01/29 05:05:36;;;;;;;3.17;2.88;;;;;;;;;;20838946;28;20041;-70
2024/01/29 05:15:55;;;;;;;3.00;2.58;;;;;;;;;;20783631;28;20049;-71
2024/01/29 05:26:15;;;;;;;5.43;3.03;;;;;;;;;;20815726;28;20037;-70
2024/01/29 05:36:34;;;;;;;4.18;2.85;;;;;;;;;;20838140;28;20457;-69
2024/01/29 05:46:54;;;;;;;4.38;3.00;;;;;;;;;;20809892;28;20054;-74
2024/01/29 05:57:14;;;;;;;4.28;3.00;;;;;;;;;;20854266;28;20508;-67
2024/01/29 06:07:33;;;;;;;6.38;3.00;;;;;;;;;;20854416;28;20115;-70
2024/01/29 06:17:52;;;;;;;12.40;3.83;;;;;;;;;;20848339;28;20551;-70
2024/01/29 06:28:12;;;;;;;14.15;4.78;;;;;;;;;;20853463;28;20045;-69
2024/01/29 06:38:31;;;;;;;11.63;4.68;;;;;;;;;;20812700;28;20073;-69
2024/01/29 06:48:51;;;;;;;13.18;4.97;;;;;;;;;;20812047;28;20053;-69
2024/01/29 06:59:11;;;;;;;13.07;5.05;;;;;;;;;;20851353;28;20053;-70
2024/01/29 07:09:31;;;;;;;9.73;4.50;;;;;;;;;;20822928;28;20057;-70
2024/01/29 07:19:52;;;;;;;10.50;4.65;;;;;;;;;;20850198;28;20052;-69
2024/01/29 07:30:12;;;;;;;13.85;5.18;;;;;;;;;;20848695;28;20056;-70
2024/01/29 07:40:32;;;;;;;10.65;5.00;;;;;;;;;;20822654;28;20049;-70
2024/01/29 07:50:52;;;;;;;8.75;4.47;;;;;;;;;;20825707;28;20723;-70
2024/01/29 08:01:11;;;;;;;10.52;4.10;;;;;;;;;;20832115;28;20049;-72
2024/01/29 08:11:31;;;;;;;7.78;4.15;;;;;;;;;;20848439;28;20387;-72
2024/01/29 08:21:50;;;;;;;9.30;4.20;;;;;;;;;;20846273;28;20421;-72
2024/01/29 08:32:10;;;;;;;7.35;4.00;;;;;;;;;;20833573;28;20045;-73
2024/01/29 08:42:29;;;;;;;8.05;3.80;;;;;;;;;;20845805;28;20585;-73
2024/01/29 08:52:49;;;;;;;7.70;4.18;;;;;;;;;;20824830;28;20074;-73
2024/01/29 09:03:09;;;;;;;8.50;3.72;;;;;;;;;;20817879;28;20052;-73
2024/01/29 09:13:29;;;;;;;7.50;4.00;;;;;;;;;;20844983;28;20050;-73
2024/01/29 09:23:48;;;;;;;7.05;3.42;;;;;;;;;;20848877;28;20045;-72
2024/01/29 09:34:08;;;;;;;5.95;3.80;;;;;;;;;;20858014;28;20045;-72
2024/01/29 09:44:28;;;;;;;5.38;3.17;;;;;;;;;;20841112;28;20493;-72
2024/01/29 09:54:49;;;;;;;5.45;3.40;;;;;;;;;;20831995;28;20119;-73
2024/01/29 10:05:11;;;;;;;5.60;3.30;;;;;;;;;;20856997;28;20444;-72
2024/01/29 10:15:30;;;;;;;6.00;3.20;;;;;;;;;;20857567;28;20135;-72
2024/01/29 10:25:56;;;;;;;5.65;3.45;;;;;;;;;;20839999;28;20033;-72
2024/01/29 10:36:16;;;;;;;5.78;3.00;;;;;;;;;;20854454;28;20462;-72
2024/01/29 10:46:38;;;;;;;4.32;2.88;;;;;;;;;;20843380;28;20053;-73
2024/01/29 10:56:59;;;;;;;4.45;2.97;;;;;;;;;;20853945;28;20041;-73
2024/01/29 11:07:22;;;;;;;3.90;2.72;;;;;;;;;;20852029;28;20179;-69
2024/01/29 11:17:42;;;;;;;4.50;2.70;;;;;;;;;;20787774;28;20041;-69
2024/01/29 11:28:02;;;;;;;5.78;2.60;;;;;;;;;;20849363;28;20068;-73
2024/01/29 11:38:22;;;;;;;3.45;2.22;;;;;;;;;;20823755;28;20482;-73
2024/01/29 11:48:42;;;;;;;3.47;2.50;;;;;;;;;;20833715;28;20522;-74
2024/01/29 11:59:02;;;;;;;3.45;2.50;;;;;;;;;;20848051;28;20047;-73
2024/01/29 12:09:21;;;;;;;4.45;2.28;;;;;;;;;;20848739;28;20057;-73
2024/01/29 12:19:41;;;;;;;3.17;2.30;;;;;;;;;;20829177;28;20041;-73
2024/01/29 12:30:03;;;;;;;3.35;2.15;;;;;;;;;;20847099;28;20052;-75
2024/01/29 12:40:23;;;;;;;3.55;2.22;;;;;;;;;;20843690;28;20049;-70
2024/01/29 12:50:42;;;;;;;3.75;2.40;;;;;;;;;;20816048;28;20061;-70
2024/01/29 13:01:02;;;;;;;3.47;2.20;;;;;;;;;;20842668;28;20049;-69
2024/01/29 13:11:21;;;;;;;2.95;2.47;;;;;;;;;;20836527;28;20050;-70
2024/01/29 13:21:42;;;;;;;2.95;2.10;;;;;;;;;;20841871;28;20116;-70
2024/01/29 13:32:01;;;;;;;2.95;2.15;;;;;;;;;;20815042;28;20045;-70
2024/01/29 13:42:20;;;;;;;2.22;2.03;;;;;;;;;;20841376;28;20053;-70
2024/01/29 13:52:40;;;;;;;2.70;2.20;;;;;;;;;;20814311;28;20065;-69
2024/01/29 14:02:59;;;;;;;2.97;2.10;;;;;;;;;;20841388;28;20045;-70
2024/01/29 14:13:19;;;;;;;2.33;1.80;;;;;;;;;;20828853;28;20056;-69
2024/01/29 14:23:40;;;;;;;2.75;1.92;;;;;;;;;;20855290;28;20046;-71
2024/01/29 14:34:00;;;;;;;2.60;1.83;;;;;;;;;;20854017;28;20450;-69
2024/01/29 14:44:19;;;;;;;2.70;1.88;;;;;;;;;;20847584;28;20038;-70
2024/01/29 14:54:38;;;;;;;2.00;1.67;;;;;;;;;;20826865;28;20068;-71
2024/01/29 15:04:58;;;;;;;2.53;2.10;;;;;;;;;;20842505;28;20060;-70
2024/01/29 15:15:17;;;;;;;2.67;1.70;;;;;;;;;;20864311;28;20049;-70
2024/01/29 15:25:38;;;;;;;2.10;1.90;;;;;;;;;;20848331;28;20409;-69
2024/01/29 15:35:58;;;;;;;1.77;1.67;;;;;;;;;;20848313;28;20150;-69
2024/01/29 15:46:17;;;;;;;3.15;1.77;;;;;;;;;;20837182;28;20363;-70
2024/01/29 15:56:37;;;;;;;6.15;2.28;;;;;;;;;;20846051;28;20047;-70
2024/01/29 16:06:57;;;;;;;3.22;2.40;;;;;;;;;;20807304;28;20049;-74
2024/01/29 16:17:16;;;;;;;2.92;2.35;;;;;;;;;;20837853;28;20417;-73
2024/01/29 16:27:36;;;;;;;4.57;2.25;;;;;;;;;;20812856;28;20042;-74
2024/01/29 16:37:55;;;;;;;4.30;2.15;;;;;;;;;;20843783;28;20045;-74
2024/01/29 16:48:15;;;;;;;4.75;2.70;;;;;;;;;;20826863;28;20045;-74
2024/01/29 16:58:35;;;;;;;5.88;2.33;;;;;;;;;;20839884;28;20047;-74
2024/01/29 17:08:55;;;;;;;2.30;2.10;;;;;;;;;;20809935;28;20509;-74
2024/01/29 17:19:15;;;;;;;3.83;2.40;;;;;;;;;;20841819;28;20041;-74
2024/01/29 17:29:35;;;;;;;5.03;2.30;;;;;;;;;;20833337;28;20053;-74
2024/01/29 17:39:54;;;;;;;3.15;2.30;;;;;;;;;;20825615;28;20046;-75
2024/01/29 17:50:13;;;;;;;3.38;2.28;;;;;;;;;;20828154;28;20053;-74
2024/01/29 18:00:32;;;;;;;3.30;2.38;;;;;;;;;;20802032;28;20506;-75
2024/01/29 18:10:52;;;;;;;3.15;2.55;;;;;;;;;;20837141;28;20421;-75
2024/01/29 18:21:11;;;;;;;3.22;2.20;;;;;;;;;;20834676;28;20052;-75
2024/01/29 18:31:31;;;;;;;4.78;2.40;;;;;;;;;;20815474;28;20068;-70
2024/01/29 18:41:50;;;;;;;2.42;2.15;;;;;;;;;;20820427;28;20042;-70
2024/01/29 18:52:10;;;;;;;4.25;2.60;;;;;;;;;;20810078;28;20053;-71
2024/01/29 19:02:29;;;;;;;2.58;2.30;;;;;;;;;;20840545;28;20092;-70
2024/01/29 19:12:48;;;;;;;2.50;2.20;;;;;;;;;;20816235;28;20057;-69
2024/01/29 19:23:08;;;;;;;3.13;2.47;;;;;;;;;;20835673;28;20092;-74
2024/01/29 19:33:29;;;;;;;4.13;2.40;;;;;;;;;;20809406;28;20046;-70
2024/01/29 19:43:48;;;;;;;2.63;2.15;;;;;;;;;;20825382;28;20402;-70
2024/01/29 19:54:07;;;;;;;4.75;2.10;;;;;;;;;;20790639;28;20046;-70
2024/01/29 20:04:27;;;;;;;2.83;2.40;;;;;;;;;;20784806;28;20044;-70
2024/01/29 20:14:46;;;;;;;4.53;2.97;;;;;;;;;;20818822;28;20041;-70
2024/01/29 20:25:06;;;;;;;4.93;2.70;;;;;;;;;;20829470;28;20516;-69
2024/01/29 20:35:25;;;;;;;5.10;3.40;;;;;;;;;;20781189;28;20389;-70
2024/01/29 20:45:44;;;;;;;6.20;3.50;;;;;;;;;;20791807;28;20054;-70
2024/01/29 20:56:04;;;;;;;6.68;3.65;;;;;;;;;;20774136;28;20060;-70
2024/01/29 21:06:24;;;;;;;5.45;3.80;;;;;;;;;;20765184;28;20045;-70
2024/01/29 21:16:43;;;;;;;5.43;3.53;;;;;;;;;;20802119;28;20534;-68
2024/01/29 21:27:03;;;;;;;6.38;3.42;;;;;;;;;;20804599;28;20053;-70
2024/01/29 21:37:22;;;;;;;5.63;3.75;;;;;;;;;;20797280;28;20042;-69
2024/01/29 21:47:41;;;;;;;4.43;3.47;;;;;;;;;;20794126;28;20054;-70
2024/01/29 21:58:01;;;;;;;5.45;3.63;;;;;;;;;;20779603;28;20045;-70
2024/01/29 22:08:21;;;;;;;4.68;3.40;;;;;;;;;;20780856;28;20042;-70
2024/01/29 22:18:40;;;;;;;5.32;3.50;;;;;;;;;;20870087;28;20041;-70
2024/01/29 22:28:59;;;;;;;4.53;3.40;;;;;;;;;;20849144;28;20096;-74
2024/01/29 22:39:19;;;;;;;4.15;3.63;;;;;;;;;;20850030;28;20478;-72
2024/01/29 22:49:38;;;;;;;5.15;3.60;;;;;;;;;;20823292;28;20453;-73
2024/01/29 22:59:58;;;;;;;4.43;3.55;;;;;;;;;;20850833;28;20591;-73
2024/01/29 23:10:17;;;;;;;7.70;3.50;;;;;;;;;;20839882;28;20061;-73
2024/01/29 23:20:37;;;;;;;7.70;3.60;;;;;;;;;;20850395;28;20391;-73
2024/01/29 23:30:56;;;;;;;5.53;3.80;;;;;;;;;;20848692;28;20056;-73
2024/01/29 23:41:15;;;;;;;3.90;3.10;;;;;;;;;;20828733;28;20446;-73
2024/01/29 23:51:35;;;;;;;4.63;3.40;;;;;;;;;;20790464;28;20059;-73
